DAL2208 KLAX-KBOI
Flight info
| Callsign | DAL2208 |
|---|---|
| Flight time | 1h 58m |
| Altitude | 36000 |
| Route | LADYJ4 CSTRO RYANN/N0454F350 PRNCS SADYL4 |
| Aircraft | A321/M-SDE3FGHIRWY/LB1 |
Departure
| Time | 2026-04-23 03:07 |
|---|---|
| Airport | Los Angeles International Airport (KLAX) |
Arrival
| Time | 2026-04-23 05:06 |
|---|---|
| Airport | Boise Air Terminal/Gowen Field (KBOI) |
| Time | Latitude | Longitude | Altitude | Speed | Heading |
|---|---|---|---|---|---|
| 2026-04-23 02:04 | 33.94637 | -118.40841 | 126 ft | 0 kts | 86° |
| 2026-04-23 02:48 | 33.94637 | -118.40850 | 126 ft | 2 kts | 86° |
| 2026-04-23 02:48 | 33.94634 | -118.40873 | 125 ft | 3 kts | 68° |
| 2026-04-23 02:48 | 33.94625 | -118.40891 | 121 ft | 3 kts | 33° |
| 2026-04-23 02:49 | 33.94608 | -118.40899 | 120 ft | 2 kts | 358° |
| 2026-04-23 02:49 | 33.94599 | -118.40898 | 121 ft | 1 kts | 353° |
| 2026-04-23 02:49 | 33.94598 | -118.40898 | 122 ft | 0 kts | 353° |
| 2026-04-23 02:57 | 33.94621 | -118.40901 | 124 ft | 4 kts | 353° |
| 2026-04-23 02:57 | 33.94628 | -118.40902 | 124 ft | 0 kts | 353° |
| 2026-04-23 02:58 | 33.94632 | -118.40903 | 123 ft | 3 kts | 353° |
| 2026-04-23 02:58 | 33.94649 | -118.40905 | 124 ft | 2 kts | 353° |
| 2026-04-23 02:58 | 33.94653 | -118.40906 | 124 ft | 0 kts | 353° |
| 2026-04-23 03:00 | 33.94665 | -118.40908 | 123 ft | 8 kts | 353° |
| 2026-04-23 03:00 | 33.94724 | -118.40911 | 123 ft | 0 kts | 12° |
| 2026-04-23 03:00 | 33.94725 | -118.40911 | 123 ft | 0 kts | 12° |
| 2026-04-23 03:01 | 33.94779 | -118.40891 | 124 ft | 14 kts | 13° |
| 2026-04-23 03:01 | 33.94843 | -118.40793 | 126 ft | 19 kts | 81° |
| 2026-04-23 03:01 | 33.94861 | -118.40643 | 121 ft | 15 kts | 83° |
| 2026-04-23 03:01 | 33.94870 | -118.40555 | 126 ft | 10 kts | 83° |
| 2026-04-23 03:02 | 33.94884 | -118.40424 | 125 ft | 18 kts | 82° |
| 2026-04-23 03:02 | 33.94897 | -118.40296 | 126 ft | 14 kts | 83° |
| 2026-04-23 03:02 | 33.94908 | -118.40186 | 124 ft | 13 kts | 83° |
| 2026-04-23 03:02 | 33.94918 | -118.40085 | 125 ft | 12 kts | 83° |
| 2026-04-23 03:03 | 33.94927 | -118.39993 | 126 ft | 11 kts | 82° |
| 2026-04-23 03:03 | 33.94944 | -118.39937 | 126 ft | 0 kts | 52° |
| 2026-04-23 03:05 | 33.94969 | -118.39918 | 125 ft | 16 kts | 16° |
| 2026-04-23 03:06 | 33.95041 | -118.39975 | 123 ft | 14 kts | 268° |
| 2026-04-23 03:06 | 33.95027 | -118.40087 | 126 ft | 16 kts | 263° |
| 2026-04-23 03:06 | 33.94994 | -118.40425 | 126 ft | 83 kts | 263° |
| 2026-04-23 03:06 | 33.94887 | -118.41455 | 134 ft | 160 kts | 262° |
| 2026-04-23 03:07 | 33.94745 | -118.42891 | 725 ft | 176 kts | 264° |
| 2026-04-23 03:07 | 33.94642 | -118.44381 | 1584 ft | 182 kts | 268° |
| 2026-04-23 03:07 | 33.94549 | -118.45939 | 2395 ft | 196 kts | 266° |
| 2026-04-23 03:07 | 33.94411 | -118.47648 | 3035 ft | 211 kts | 267° |
| 2026-04-23 03:08 | 33.94347 | -118.48810 | 3348 ft | 209 kts | 268° |
| 2026-04-23 03:08 | 33.94271 | -118.50612 | 3554 ft | 221 kts | 269° |
| 2026-04-23 03:08 | 33.94154 | -118.52478 | 3851 ft | 230 kts | 266° |
| 2026-04-23 03:08 | 33.93994 | -118.54486 | 4103 ft | 251 kts | 265° |
| 2026-04-23 03:09 | 33.93812 | -118.56644 | 4721 ft | 264 kts | 266° |
| 2026-04-23 03:09 | 33.93625 | -118.58859 | 5580 ft | 267 kts | 266° |
| 2026-04-23 03:09 | 33.93676 | -118.61083 | 6453 ft | 267 kts | 283° |
| 2026-04-23 03:09 | 33.94332 | -118.63176 | 7234 ft | 270 kts | 301° |
| 2026-04-23 03:10 | 33.95552 | -118.64894 | 8065 ft | 273 kts | 320° |
| 2026-04-23 03:10 | 33.97141 | -118.66151 | 8960 ft | 273 kts | 326° |
| 2026-04-23 03:10 | 33.98851 | -118.67169 | 9848 ft | 278 kts | 337° |
| 2026-04-23 03:10 | 34.00774 | -118.67611 | 10610 ft | 286 kts | 352° |
| 2026-04-23 03:11 | 34.02783 | -118.67521 | 11364 ft | 291 kts | 356° |
| 2026-04-23 03:11 | 34.04815 | -118.67383 | 12115 ft | 294 kts | 356° |
| 2026-04-23 03:11 | 34.06867 | -118.67249 | 12841 ft | 297 kts | 356° |
| 2026-04-23 03:11 | 34.08945 | -118.66915 | 13599 ft | 305 kts | 3° |
| 2026-04-23 03:12 | 34.11041 | -118.66417 | 14265 ft | 310 kts | 2° |
| 2026-04-23 03:12 | 34.13188 | -118.65917 | 14569 ft | 327 kts | 3° |
| 2026-04-23 03:12 | 34.15447 | -118.65390 | 15035 ft | 335 kts | 3° |
| 2026-04-23 03:12 | 34.17747 | -118.64848 | 15649 ft | 340 kts | 3° |
| 2026-04-23 03:13 | 34.20085 | -118.64292 | 16272 ft | 344 kts | 3° |
| 2026-04-23 03:13 | 34.22438 | -118.63754 | 16885 ft | 345 kts | 360° |
| 2026-04-23 03:13 | 34.24819 | -118.63573 | 17490 ft | 341 kts | 350° |
| 2026-04-23 03:13 | 34.27174 | -118.63868 | 18047 ft | 337 kts | 341° |
| 2026-04-23 03:14 | 34.29483 | -118.64408 | 18655 ft | 340 kts | 341° |
| 2026-04-23 03:14 | 34.31818 | -118.64944 | 19200 ft | 343 kts | 341° |
| 2026-04-23 03:14 | 34.34173 | -118.65479 | 19763 ft | 346 kts | 341° |
| 2026-04-23 03:14 | 34.36550 | -118.66019 | 20305 ft | 349 kts | 341° |
| 2026-04-23 03:15 | 34.38939 | -118.66563 | 20880 ft | 351 kts | 341° |
| 2026-04-23 03:15 | 34.41353 | -118.67113 | 21445 ft | 354 kts | 341° |
| 2026-04-23 03:15 | 34.43777 | -118.67661 | 21980 ft | 357 kts | 341° |
| 2026-04-23 03:15 | 34.46247 | -118.68175 | 22523 ft | 361 kts | 342° |
| 2026-04-23 03:16 | 34.48743 | -118.68661 | 23034 ft | 364 kts | 342° |
| 2026-04-23 03:16 | 34.51249 | -118.69132 | 23560 ft | 367 kts | 342° |
| 2026-04-23 03:16 | 34.56327 | -118.70092 | 24411 ft | 372 kts | 342° |
| 2026-04-23 03:17 | 34.58904 | -118.70589 | 24808 ft | 375 kts | 342° |
| 2026-04-23 03:17 | 34.61480 | -118.71090 | 25251 ft | 378 kts | 341° |
| 2026-04-23 03:17 | 34.64087 | -118.71601 | 25659 ft | 380 kts | 341° |
| 2026-04-23 03:17 | 34.66708 | -118.72113 | 26049 ft | 382 kts | 342° |
| 2026-04-23 03:18 | 34.69339 | -118.72639 | 26430 ft | 384 kts | 339° |
| 2026-04-23 03:18 | 34.71900 | -118.73476 | 26798 ft | 378 kts | 332° |
| 2026-04-23 03:18 | 34.74259 | -118.74712 | 27106 ft | 373 kts | 324° |
| 2026-04-23 03:18 | 34.76515 | -118.76259 | 27481 ft | 373 kts | 322° |
| 2026-04-23 03:19 | 34.78779 | -118.77825 | 27858 ft | 376 kts | 322° |
| 2026-04-23 03:19 | 34.81066 | -118.79396 | 28202 ft | 379 kts | 322° |
| 2026-04-23 03:19 | 34.83370 | -118.80975 | 28561 ft | 381 kts | 322° |
| 2026-04-23 03:19 | 34.85691 | -118.82566 | 28923 ft | 384 kts | 322° |
| 2026-04-23 03:20 | 34.88018 | -118.84163 | 29265 ft | 386 kts | 322° |
| 2026-04-23 03:20 | 34.90373 | -118.85781 | 29640 ft | 389 kts | 322° |
| 2026-04-23 03:20 | 34.92736 | -118.87406 | 29915 ft | 392 kts | 322° |
| 2026-04-23 03:20 | 34.95101 | -118.89032 | 30368 ft | 390 kts | 322° |
| 2026-04-23 03:21 | 34.97465 | -118.90658 | 30774 ft | 389 kts | 322° |
| 2026-04-23 03:21 | 34.99816 | -118.92279 | 31218 ft | 387 kts | 322° |
| 2026-04-23 03:21 | 35.01964 | -118.93764 | 31662 ft | 377 kts | 321° |
| 2026-04-23 03:21 | 35.04240 | -118.95336 | 32107 ft | 375 kts | 321° |
| 2026-04-23 03:22 | 35.06512 | -118.96888 | 32573 ft | 373 kts | 322° |
| 2026-04-23 03:22 | 35.08774 | -118.98408 | 33040 ft | 370 kts | 321° |
| 2026-04-23 03:22 | 35.11021 | -118.99909 | 33525 ft | 367 kts | 321° |
| 2026-04-23 03:22 | 35.13252 | -119.01389 | 33993 ft | 363 kts | 321° |
| 2026-04-23 03:23 | 35.15465 | -119.02845 | 34424 ft | 359 kts | 321° |
| 2026-04-23 03:23 | 35.17653 | -119.04262 | 34851 ft | 354 kts | 321° |
| 2026-04-23 03:23 | 35.19829 | -119.05644 | 35321 ft | 349 kts | 321° |
| 2026-04-23 03:23 | 35.21950 | -119.06969 | 35681 ft | 346 kts | 321° |
| 2026-04-23 03:24 | 35.24102 | -119.08299 | 35840 ft | 348 kts | 321° |
| 2026-04-23 03:24 | 35.26264 | -119.09633 | 36016 ft | 349 kts | 321° |
| 2026-04-23 03:24 | 35.30648 | -119.12339 | 36139 ft | 358 kts | 322° |
| 2026-04-23 03:25 | 35.35167 | -119.15168 | 36136 ft | 371 kts | 322° |
| 2026-04-23 03:25 | 35.39638 | -119.18396 | 36141 ft | 370 kts | 311° |
| 2026-04-23 03:26 | 35.44008 | -119.21954 | 36140 ft | 391 kts | 326° |
| 2026-04-23 03:26 | 35.46616 | -119.23065 | 36146 ft | 406 kts | 335° |
| 2026-04-23 03:26 | 35.49459 | -119.23588 | 36146 ft | 422 kts | 346° |
| 2026-04-23 03:27 | 35.55390 | -119.23658 | 36155 ft | 426 kts | 348° |
| 2026-04-23 03:27 | 35.61320 | -119.23703 | 36156 ft | 426 kts | 347° |
| 2026-04-23 03:28 | 35.67229 | -119.23765 | 36162 ft | 425 kts | 347° |
| 2026-04-23 03:28 | 35.73142 | -119.23838 | 36163 ft | 425 kts | 347° |
| 2026-04-23 03:29 | 35.79054 | -119.23908 | 36162 ft | 425 kts | 347° |
| 2026-04-23 03:29 | 35.84968 | -119.23977 | 36161 ft | 424 kts | 347° |
| 2026-04-23 03:30 | 35.90877 | -119.24036 | 36168 ft | 425 kts | 347° |
| 2026-04-23 03:30 | 35.96784 | -119.24100 | 36172 ft | 424 kts | 347° |
| 2026-04-23 03:31 | 36.02684 | -119.24177 | 36223 ft | 424 kts | 347° |
| 2026-04-23 03:31 | 36.08592 | -119.24248 | 36171 ft | 424 kts | 347° |
| 2026-04-23 03:32 | 36.14491 | -119.24305 | 36167 ft | 424 kts | 347° |
| 2026-04-23 03:32 | 36.20394 | -119.24370 | 36168 ft | 424 kts | 347° |
| 2026-04-23 03:33 | 36.26292 | -119.24446 | 36169 ft | 424 kts | 347° |
| 2026-04-23 03:33 | 36.32148 | -119.24513 | 36170 ft | 423 kts | 347° |
| 2026-04-23 03:34 | 36.38077 | -119.24574 | 36169 ft | 423 kts | 347° |
| 2026-04-23 03:34 | 36.43924 | -119.24641 | 36168 ft | 423 kts | 347° |
| 2026-04-23 03:35 | 36.49811 | -119.24708 | 36162 ft | 423 kts | 347° |
| 2026-04-23 03:35 | 36.55688 | -119.24766 | 36163 ft | 423 kts | 347° |
| 2026-04-23 03:36 | 36.61569 | -119.24833 | 36161 ft | 422 kts | 347° |
| 2026-04-23 03:36 | 36.67447 | -119.24908 | 36198 ft | 422 kts | 347° |
| 2026-04-23 03:37 | 36.73321 | -119.24979 | 36159 ft | 422 kts | 347° |
| 2026-04-23 03:37 | 36.79189 | -119.25048 | 36163 ft | 422 kts | 347° |
| 2026-04-23 03:38 | 36.85054 | -119.25120 | 36164 ft | 422 kts | 347° |
| 2026-04-23 03:38 | 36.90931 | -119.25190 | 36164 ft | 422 kts | 347° |
| 2026-04-23 03:39 | 36.96785 | -119.25257 | 36166 ft | 422 kts | 347° |
| 2026-04-23 03:39 | 37.02660 | -119.25317 | 36166 ft | 422 kts | 347° |
| 2026-04-23 03:40 | 37.08533 | -119.25380 | 36165 ft | 422 kts | 347° |
| 2026-04-23 03:40 | 37.14360 | -119.25442 | 36170 ft | 421 kts | 347° |
| 2026-04-23 03:41 | 37.20210 | -119.25508 | 36176 ft | 421 kts | 347° |
| 2026-04-23 03:41 | 37.26064 | -119.25577 | 36182 ft | 421 kts | 347° |
| 2026-04-23 03:42 | 37.31923 | -119.25656 | 36203 ft | 420 kts | 347° |
| 2026-04-23 03:42 | 37.37767 | -119.25727 | 36197 ft | 420 kts | 347° |
| 2026-04-23 03:43 | 37.43616 | -119.25795 | 36197 ft | 420 kts | 347° |
| 2026-04-23 03:43 | 37.49447 | -119.25858 | 36201 ft | 420 kts | 347° |
| 2026-04-23 03:44 | 37.55294 | -119.25920 | 36193 ft | 419 kts | 347° |
| 2026-04-23 03:44 | 37.61125 | -119.25990 | 36211 ft | 419 kts | 347° |
| 2026-04-23 03:45 | 37.66957 | -119.26069 | 36207 ft | 419 kts | 347° |
| 2026-04-23 03:45 | 37.72788 | -119.26140 | 36256 ft | 419 kts | 348° |
| 2026-04-23 03:46 | 37.78571 | -119.26202 | 36213 ft | 418 kts | 348° |
| 2026-04-23 03:46 | 37.84392 | -119.26269 | 36209 ft | 418 kts | 348° |
| 2026-04-23 03:47 | 37.90217 | -119.26339 | 36207 ft | 418 kts | 348° |
| 2026-04-23 03:47 | 37.96041 | -119.26409 | 36204 ft | 419 kts | 348° |
| 2026-04-23 03:48 | 38.01867 | -119.26479 | 36202 ft | 419 kts | 348° |
| 2026-04-23 03:48 | 38.07695 | -119.26553 | 36199 ft | 419 kts | 348° |
| 2026-04-23 03:49 | 38.13510 | -119.26621 | 36192 ft | 418 kts | 348° |
| 2026-04-23 03:49 | 38.19332 | -119.26690 | 36191 ft | 419 kts | 349° |
| 2026-04-23 03:50 | 38.25165 | -119.26758 | 36192 ft | 419 kts | 349° |
| 2026-04-23 03:50 | 38.31001 | -119.26823 | 36185 ft | 420 kts | 349° |
| 2026-04-23 03:51 | 38.36846 | -119.26892 | 36182 ft | 419 kts | 350° |
| 2026-04-23 03:51 | 38.42671 | -119.26959 | 36171 ft | 419 kts | 350° |
| 2026-04-23 03:52 | 38.48500 | -119.27031 | 36175 ft | 419 kts | 350° |
| 2026-04-23 03:52 | 38.54292 | -119.27100 | 36168 ft | 419 kts | 350° |
| 2026-04-23 03:53 | 38.60119 | -119.27172 | 36160 ft | 419 kts | 351° |
| 2026-04-23 03:53 | 38.65945 | -119.27244 | 36160 ft | 419 kts | 351° |
| 2026-04-23 03:54 | 38.71766 | -119.27317 | 36153 ft | 419 kts | 351° |
| 2026-04-23 03:54 | 38.77592 | -119.27386 | 36145 ft | 419 kts | 351° |
| 2026-04-23 03:55 | 38.83418 | -119.27461 | 36142 ft | 418 kts | 351° |
| 2026-04-23 03:55 | 38.89241 | -119.27540 | 36141 ft | 418 kts | 351° |
| 2026-04-23 03:56 | 38.95069 | -119.27604 | 36138 ft | 419 kts | 351° |
| 2026-04-23 03:56 | 39.00888 | -119.27668 | 36130 ft | 418 kts | 351° |
| 2026-04-23 03:57 | 39.06710 | -119.27735 | 36133 ft | 419 kts | 351° |
| 2026-04-23 03:57 | 39.12540 | -119.27802 | 36136 ft | 418 kts | 351° |
| 2026-04-23 03:58 | 39.18357 | -119.27881 | 36128 ft | 418 kts | 352° |
| 2026-04-23 03:58 | 39.24199 | -119.27405 | 36124 ft | 430 kts | 4° |
| 2026-04-23 03:59 | 39.29990 | -119.25082 | 36126 ft | 438 kts | 11° |
| 2026-04-23 03:59 | 39.35763 | -119.22551 | 36111 ft | 438 kts | 11° |
| 2026-04-23 04:00 | 39.41533 | -119.20040 | 36120 ft | 437 kts | 11° |
| 2026-04-23 04:00 | 39.46321 | -119.17953 | 36115 ft | 437 kts | 11° |
| 2026-04-23 04:01 | 39.52091 | -119.15434 | 36115 ft | 437 kts | 11° |
| 2026-04-23 04:01 | 39.57849 | -119.12917 | 36108 ft | 437 kts | 11° |
| 2026-04-23 04:02 | 39.63606 | -119.10396 | 36120 ft | 436 kts | 12° |
| 2026-04-23 04:02 | 39.69349 | -119.07867 | 36132 ft | 436 kts | 12° |
| 2026-04-23 04:03 | 39.75097 | -119.05335 | 36135 ft | 436 kts | 12° |
| 2026-04-23 04:03 | 39.80836 | -119.02803 | 36145 ft | 436 kts | 12° |
| 2026-04-23 04:04 | 39.86577 | -119.00261 | 36148 ft | 436 kts | 13° |
| 2026-04-23 04:04 | 39.92320 | -118.97722 | 36149 ft | 436 kts | 13° |
| 2026-04-23 04:05 | 39.98068 | -118.95170 | 36165 ft | 436 kts | 13° |
| 2026-04-23 04:05 | 40.03830 | -118.92611 | 36164 ft | 438 kts | 13° |
| 2026-04-23 04:06 | 40.09590 | -118.90051 | 36154 ft | 437 kts | 14° |
| 2026-04-23 04:06 | 40.15332 | -118.87492 | 36156 ft | 437 kts | 14° |
| 2026-04-23 04:07 | 40.21085 | -118.84923 | 36156 ft | 437 kts | 14° |
| 2026-04-23 04:07 | 40.26844 | -118.82340 | 36163 ft | 437 kts | 14° |
| 2026-04-23 04:08 | 40.32582 | -118.79772 | 36154 ft | 435 kts | 14° |
| 2026-04-23 04:08 | 40.38310 | -118.77201 | 36148 ft | 435 kts | 14° |
| 2026-04-23 04:09 | 40.43998 | -118.74642 | 36144 ft | 435 kts | 14° |
| 2026-04-23 04:09 | 40.49717 | -118.72054 | 36156 ft | 435 kts | 15° |
| 2026-04-23 04:10 | 40.55432 | -118.69468 | 36142 ft | 433 kts | 15° |
| 2026-04-23 04:10 | 40.61135 | -118.66895 | 36140 ft | 433 kts | 15° |
| 2026-04-23 04:11 | 40.66832 | -118.64322 | 36129 ft | 433 kts | 15° |
| 2026-04-23 04:11 | 40.72526 | -118.61733 | 36132 ft | 431 kts | 16° |
| 2026-04-23 04:12 | 40.78184 | -118.59156 | 36128 ft | 429 kts | 16° |
| 2026-04-23 04:12 | 40.83823 | -118.56590 | 36125 ft | 429 kts | 16° |
| 2026-04-23 04:13 | 40.89466 | -118.54022 | 36121 ft | 429 kts | 16° |
| 2026-04-23 04:13 | 40.95094 | -118.51451 | 36111 ft | 427 kts | 17° |
| 2026-04-23 04:14 | 41.00707 | -118.48885 | 36119 ft | 426 kts | 17° |
| 2026-04-23 04:14 | 41.06268 | -118.46329 | 36121 ft | 426 kts | 17° |
| 2026-04-23 04:15 | 41.11900 | -118.43737 | 36123 ft | 426 kts | 17° |
| 2026-04-23 04:16 | 41.20270 | -118.39881 | 36122 ft | 426 kts | 17° |
| 2026-04-23 04:16 | 41.25866 | -118.37290 | 36119 ft | 426 kts | 17° |
| 2026-04-23 04:17 | 41.31464 | -118.34695 | 36120 ft | 425 kts | 17° |
| 2026-04-23 04:17 | 41.37048 | -118.32107 | 36125 ft | 424 kts | 17° |
| 2026-04-23 04:18 | 41.42605 | -118.29528 | 36121 ft | 422 kts | 17° |
| 2026-04-23 04:18 | 41.48147 | -118.26954 | 36124 ft | 422 kts | 17° |
| 2026-04-23 04:19 | 41.53440 | -118.24488 | 36169 ft | 411 kts | 17° |
| 2026-04-23 04:19 | 41.58866 | -118.21962 | 36138 ft | 418 kts | 17° |
| 2026-04-23 04:20 | 41.64371 | -118.19393 | 36132 ft | 420 kts | 18° |
| 2026-04-23 04:20 | 41.69878 | -118.16805 | 36131 ft | 420 kts | 18° |
| 2026-04-23 04:21 | 41.75391 | -118.14215 | 35522 ft | 418 kts | 18° |
| 2026-04-23 04:21 | 41.78123 | -118.12930 | 35013 ft | 415 kts | 19° |
| 2026-04-23 04:21 | 41.80831 | -118.11654 | 34575 ft | 411 kts | 20° |
| 2026-04-23 04:21 | 41.83516 | -118.10388 | 34141 ft | 407 kts | 20° |
| 2026-04-23 04:22 | 41.86174 | -118.09135 | 33572 ft | 404 kts | 20° |
| 2026-04-23 04:22 | 41.88825 | -118.07884 | 32929 ft | 403 kts | 20° |
| 2026-04-23 04:22 | 41.91463 | -118.06638 | 32243 ft | 403 kts | 20° |
| 2026-04-23 04:22 | 41.94118 | -118.05385 | 31535 ft | 403 kts | 20° |
| 2026-04-23 04:23 | 41.96760 | -118.04139 | 30836 ft | 404 kts | 20° |
| 2026-04-23 04:23 | 41.99421 | -118.02886 | 30126 ft | 405 kts | 20° |
| 2026-04-23 04:23 | 42.02068 | -118.01639 | 29502 ft | 401 kts | 20° |
| 2026-04-23 04:23 | 42.04679 | -118.00406 | 28900 ft | 397 kts | 20° |
| 2026-04-23 04:24 | 42.07279 | -117.99173 | 28293 ft | 393 kts | 19° |
| 2026-04-23 04:24 | 42.09845 | -117.97951 | 27664 ft | 391 kts | 19° |
| 2026-04-23 04:24 | 42.12405 | -117.96733 | 27040 ft | 389 kts | 19° |
| 2026-04-23 04:24 | 42.14946 | -117.95522 | 26464 ft | 386 kts | 19° |
| 2026-04-23 04:25 | 42.17474 | -117.94313 | 25877 ft | 384 kts | 19° |
| 2026-04-23 04:25 | 42.19975 | -117.93115 | 25314 ft | 381 kts | 19° |
| 2026-04-23 04:25 | 42.22461 | -117.91924 | 24751 ft | 378 kts | 19° |
| 2026-04-23 04:25 | 42.24906 | -117.90751 | 24224 ft | 376 kts | 18° |
| 2026-04-23 04:26 | 42.27393 | -117.89561 | 23664 ft | 373 kts | 18° |
| 2026-04-23 04:26 | 42.29792 | -117.88413 | 23045 ft | 370 kts | 18° |
| 2026-04-23 04:26 | 42.32210 | -117.87259 | 22444 ft | 367 kts | 18° |
| 2026-04-23 04:26 | 42.34618 | -117.86111 | 21798 ft | 366 kts | 18° |
| 2026-04-23 04:27 | 42.37008 | -117.84972 | 21254 ft | 364 kts | 18° |
| 2026-04-23 04:27 | 42.39402 | -117.83824 | 21077 ft | 364 kts | 18° |
| 2026-04-23 04:27 | 42.41748 | -117.82541 | 21099 ft | 367 kts | 24° |
| 2026-04-23 04:28 | 42.45946 | -117.78569 | 21101 ft | 372 kts | 41° |
| 2026-04-23 04:28 | 42.47678 | -117.75954 | 21101 ft | 373 kts | 48° |
| 2026-04-23 04:28 | 42.49316 | -117.73228 | 21098 ft | 373 kts | 48° |
| 2026-04-23 04:28 | 42.50954 | -117.70510 | 21099 ft | 372 kts | 47° |
| 2026-04-23 04:29 | 42.52595 | -117.67793 | 21109 ft | 372 kts | 47° |
| 2026-04-23 04:29 | 42.54235 | -117.65084 | 21099 ft | 372 kts | 47° |
| 2026-04-23 04:29 | 42.55879 | -117.62370 | 21099 ft | 372 kts | 47° |
| 2026-04-23 04:29 | 42.57521 | -117.59656 | 21100 ft | 372 kts | 47° |
| 2026-04-23 04:30 | 42.59166 | -117.56931 | 21099 ft | 372 kts | 47° |
| 2026-04-23 04:30 | 42.60807 | -117.54206 | 21102 ft | 372 kts | 47° |
| 2026-04-23 04:30 | 42.62442 | -117.51486 | 21103 ft | 372 kts | 47° |
| 2026-04-23 04:30 | 42.64081 | -117.48758 | 21106 ft | 372 kts | 47° |
| 2026-04-23 04:31 | 42.65717 | -117.46030 | 21105 ft | 372 kts | 47° |
| 2026-04-23 04:31 | 42.67338 | -117.43320 | 20723 ft | 368 kts | 47° |
| 2026-04-23 04:31 | 42.68945 | -117.40632 | 20189 ft | 366 kts | 47° |
| 2026-04-23 04:31 | 42.70546 | -117.37955 | 19649 ft | 364 kts | 47° |
| 2026-04-23 04:32 | 42.72141 | -117.35287 | 19115 ft | 362 kts | 47° |
| 2026-04-23 04:32 | 42.73720 | -117.32643 | 18597 ft | 361 kts | 47° |
| 2026-04-23 04:32 | 42.75305 | -117.29987 | 18046 ft | 359 kts | 47° |
| 2026-04-23 04:32 | 42.76873 | -117.27358 | 17483 ft | 358 kts | 47° |
| 2026-04-23 04:33 | 42.78440 | -117.24731 | 16924 ft | 357 kts | 47° |
| 2026-04-23 04:33 | 42.79953 | -117.22062 | 16375 ft | 357 kts | 50° |
| 2026-04-23 04:33 | 42.81398 | -117.19308 | 15844 ft | 356 kts | 50° |
| 2026-04-23 04:33 | 42.82826 | -117.16554 | 15346 ft | 354 kts | 51° |
| 2026-04-23 04:34 | 42.84246 | -117.13827 | 14860 ft | 353 kts | 51° |
| 2026-04-23 04:34 | 42.85664 | -117.11098 | 14370 ft | 352 kts | 51° |
| 2026-04-23 04:34 | 42.87077 | -117.08379 | 14128 ft | 352 kts | 51° |
| 2026-04-23 04:34 | 42.88495 | -117.05651 | 14106 ft | 353 kts | 51° |
| 2026-04-23 04:35 | 42.89863 | -117.03011 | 14111 ft | 337 kts | 51° |
| 2026-04-23 04:35 | 42.91175 | -117.00463 | 14112 ft | 321 kts | 51° |
| 2026-04-23 04:35 | 42.92425 | -116.98021 | 14107 ft | 309 kts | 49° |
| 2026-04-23 04:35 | 42.93759 | -116.95755 | 14110 ft | 305 kts | 45° |
| 2026-04-23 04:36 | 42.95134 | -116.93554 | 14127 ft | 304 kts | 43° |
| 2026-04-23 04:36 | 42.96522 | -116.91386 | 14116 ft | 303 kts | 43° |
| 2026-04-23 04:36 | 42.97913 | -116.89223 | 14113 ft | 303 kts | 43° |
| 2026-04-23 04:36 | 42.99298 | -116.87054 | 14106 ft | 303 kts | 42° |
| 2026-04-23 04:37 | 43.00679 | -116.84883 | 14106 ft | 303 kts | 42° |
| 2026-04-23 04:37 | 43.02058 | -116.82711 | 14104 ft | 303 kts | 42° |
| 2026-04-23 04:37 | 43.03432 | -116.80538 | 14103 ft | 302 kts | 42° |
| 2026-04-23 04:37 | 43.04806 | -116.78361 | 14088 ft | 302 kts | 42° |
| 2026-04-23 04:38 | 43.06185 | -116.76175 | 13887 ft | 302 kts | 43° |
| 2026-04-23 04:38 | 43.07554 | -116.74002 | 13620 ft | 302 kts | 44° |
| 2026-04-23 04:38 | 43.08923 | -116.71829 | 13336 ft | 301 kts | 43° |
| 2026-04-23 04:38 | 43.10289 | -116.69656 | 13076 ft | 300 kts | 42° |
| 2026-04-23 04:39 | 43.11649 | -116.67492 | 12813 ft | 300 kts | 44° |
| 2026-04-23 04:39 | 43.13008 | -116.65327 | 12553 ft | 300 kts | 45° |
| 2026-04-23 04:39 | 43.14361 | -116.63167 | 12283 ft | 299 kts | 44° |
| 2026-04-23 04:39 | 43.15711 | -116.61006 | 12031 ft | 298 kts | 45° |
| 2026-04-23 04:40 | 43.17055 | -116.58857 | 11770 ft | 296 kts | 45° |
| 2026-04-23 04:40 | 43.18385 | -116.56728 | 11511 ft | 292 kts | 45° |
| 2026-04-23 04:40 | 43.19712 | -116.54642 | 11258 ft | 290 kts | 44° |
| 2026-04-23 04:40 | 43.21050 | -116.52582 | 11007 ft | 287 kts | 43° |
| 2026-04-23 04:41 | 43.22373 | -116.50565 | 10757 ft | 281 kts | 43° |
| 2026-04-23 04:41 | 43.23671 | -116.48589 | 10509 ft | 278 kts | 43° |
| 2026-04-23 04:41 | 43.24962 | -116.46621 | 10269 ft | 277 kts | 43° |
| 2026-04-23 04:41 | 43.26250 | -116.44648 | 10033 ft | 277 kts | 43° |
| 2026-04-23 04:42 | 43.27538 | -116.42673 | 9885 ft | 279 kts | 44° |
| 2026-04-23 04:42 | 43.28830 | -116.40683 | 9757 ft | 279 kts | 44° |
| 2026-04-23 04:42 | 43.30122 | -116.38687 | 9527 ft | 280 kts | 43° |
| 2026-04-23 04:42 | 43.31412 | -116.36693 | 9107 ft | 279 kts | 43° |
| 2026-04-23 04:43 | 43.32684 | -116.34727 | 8697 ft | 279 kts | 43° |
| 2026-04-23 04:43 | 43.33981 | -116.32722 | 8367 ft | 275 kts | 43° |
| 2026-04-23 04:43 | 43.35241 | -116.30773 | 7956 ft | 275 kts | 43° |
| 2026-04-23 04:43 | 43.36490 | -116.28835 | 7674 ft | 270 kts | 43° |
| 2026-04-23 04:44 | 43.37730 | -116.26911 | 7447 ft | 267 kts | 43° |
| 2026-04-23 04:44 | 43.38961 | -116.25005 | 7298 ft | 266 kts | 42° |
| 2026-04-23 04:44 | 43.40186 | -116.23105 | 7178 ft | 266 kts | 43° |
| 2026-04-23 04:44 | 43.41400 | -116.21185 | 7059 ft | 266 kts | 48° |
| 2026-04-23 04:45 | 43.42108 | -116.18827 | 7072 ft | 274 kts | 82° |
| 2026-04-23 04:45 | 43.41797 | -116.16256 | 7069 ft | 278 kts | 117° |
| 2026-04-23 04:45 | 43.40530 | -116.14288 | 7063 ft | 276 kts | 147° |
| 2026-04-23 04:45 | 43.38981 | -116.12701 | 7057 ft | 278 kts | 139° |
| 2026-04-23 04:46 | 43.37758 | -116.10649 | 7073 ft | 279 kts | 119° |
| 2026-04-23 04:46 | 43.36872 | -116.08268 | 7070 ft | 280 kts | 115° |
| 2026-04-23 04:46 | 43.36038 | -116.05854 | 7069 ft | 280 kts | 114° |
| 2026-04-23 04:46 | 43.35226 | -116.03430 | 7057 ft | 279 kts | 114° |
| 2026-04-23 04:47 | 43.34419 | -116.00996 | 7054 ft | 279 kts | 114° |
| 2026-04-23 04:47 | 43.33615 | -115.98571 | 7052 ft | 279 kts | 114° |
| 2026-04-23 04:47 | 43.32821 | -115.96183 | 7050 ft | 279 kts | 114° |
| 2026-04-23 04:47 | 43.32004 | -115.93737 | 7045 ft | 276 kts | 114° |
| 2026-04-23 04:48 | 43.31227 | -115.91421 | 7052 ft | 263 kts | 114° |
| 2026-04-23 04:48 | 43.30487 | -115.89218 | 7052 ft | 248 kts | 114° |
| 2026-04-23 04:48 | 43.29782 | -115.87126 | 7053 ft | 236 kts | 114° |
| 2026-04-23 04:48 | 43.29095 | -115.85092 | 7059 ft | 235 kts | 114° |
| 2026-04-23 04:49 | 43.28408 | -115.83063 | 7070 ft | 235 kts | 114° |
| 2026-04-23 04:49 | 43.27795 | -115.80989 | 7051 ft | 234 kts | 98° |
| 2026-04-23 04:49 | 43.27794 | -115.78808 | 7005 ft | 228 kts | 69° |
| 2026-04-23 04:49 | 43.28491 | -115.76945 | 6867 ft | 214 kts | 39° |
| 2026-04-23 04:50 | 43.29670 | -115.75850 | 6665 ft | 199 kts | 9° |
| 2026-04-23 04:50 | 43.30547 | -115.75670 | 6478 ft | 189 kts | 349° |
| 2026-04-23 04:50 | 43.32061 | -115.76617 | 5970 ft | 181 kts | 310° |
| 2026-04-23 04:50 | 43.32624 | -115.77448 | 5830 ft | 177 kts | 312° |
| 2026-04-23 04:51 | 43.33484 | -115.78659 | 5915 ft | 178 kts | 313° |
| 2026-04-23 04:51 | 43.34383 | -115.79803 | 6560 ft | 165 kts | 319° |
| 2026-04-23 04:51 | 43.35255 | -115.80706 | 7552 ft | 144 kts | 319° |
| 2026-04-23 04:51 | 43.36040 | -115.81480 | 8074 ft | 151 kts | 326° |
| 2026-04-23 04:52 | 43.37097 | -115.82142 | 8143 ft | 179 kts | 339° |
| 2026-04-23 04:52 | 43.38397 | -115.82379 | 8322 ft | 197 kts | 354° |
| 2026-04-23 04:52 | 43.39753 | -115.82503 | 8514 ft | 194 kts | 347° |
| 2026-04-23 04:52 | 43.41085 | -115.82780 | 8639 ft | 195 kts | 351° |
| 2026-04-23 04:53 | 43.42447 | -115.82488 | 8811 ft | 202 kts | 8° |
| 2026-04-23 04:53 | 43.43801 | -115.81958 | 8969 ft | 203 kts | 10° |
| 2026-04-23 04:53 | 43.45154 | -115.81404 | 9109 ft | 204 kts | 10° |
| 2026-04-23 04:53 | 43.46516 | -115.80842 | 8899 ft | 203 kts | 10° |
| 2026-04-23 04:54 | 43.47850 | -115.80288 | 8684 ft | 202 kts | 11° |
| 2026-04-23 04:54 | 43.49208 | -115.79722 | 8470 ft | 201 kts | 11° |
| 2026-04-23 04:54 | 43.50515 | -115.79118 | 8253 ft | 205 kts | 21° |
| 2026-04-23 04:54 | 43.51528 | -115.77685 | 8041 ft | 218 kts | 58° |
| 2026-04-23 04:55 | 43.51779 | -115.75613 | 7843 ft | 227 kts | 94° |
| 2026-04-23 04:55 | 43.51441 | -115.73483 | 7586 ft | 229 kts | 103° |
| 2026-04-23 04:55 | 43.51016 | -115.71377 | 7171 ft | 227 kts | 104° |
| 2026-04-23 04:55 | 43.50593 | -115.69299 | 6786 ft | 225 kts | 104° |
| 2026-04-23 04:56 | 43.50091 | -115.67263 | 6404 ft | 225 kts | 118° |
| 2026-04-23 04:56 | 43.49111 | -115.65730 | 6847 ft | 210 kts | 147° |
| 2026-04-23 04:56 | 43.47798 | -115.64973 | 7318 ft | 208 kts | 175° |
| 2026-04-23 04:56 | 43.46354 | -115.65130 | 7357 ft | 208 kts | 206° |
| 2026-04-23 04:57 | 43.45198 | -115.66200 | 7422 ft | 198 kts | 234° |
| 2026-04-23 04:57 | 43.44494 | -115.67790 | 7362 ft | 194 kts | 255° |
| 2026-04-23 04:57 | 43.44358 | -115.69605 | 6911 ft | 190 kts | 273° |
| 2026-04-23 04:57 | 43.44358 | -115.71410 | 6483 ft | 188 kts | 273° |
| 2026-04-23 04:58 | 43.44355 | -115.73171 | 6416 ft | 183 kts | 273° |
| 2026-04-23 04:58 | 43.44359 | -115.74920 | 6358 ft | 183 kts | 274° |
| 2026-04-23 04:58 | 43.44374 | -115.76679 | 6321 ft | 184 kts | 274° |
| 2026-04-23 04:58 | 43.44396 | -115.78444 | 6298 ft | 185 kts | 274° |
| 2026-04-23 04:59 | 43.44418 | -115.80207 | 6329 ft | 184 kts | 273° |
| 2026-04-23 04:59 | 43.44406 | -115.81969 | 6352 ft | 184 kts | 272° |
| 2026-04-23 04:59 | 43.44383 | -115.83728 | 6380 ft | 184 kts | 272° |
| 2026-04-23 04:59 | 43.44358 | -115.85488 | 6407 ft | 184 kts | 272° |
| 2026-04-23 05:00 | 43.44519 | -115.87211 | 6417 ft | 181 kts | 289° |
| 2026-04-23 05:00 | 43.45040 | -115.88783 | 6452 ft | 181 kts | 296° |
| 2026-04-23 05:00 | 43.45584 | -115.90348 | 6470 ft | 181 kts | 295° |
| 2026-04-23 05:00 | 43.46123 | -115.91912 | 6503 ft | 181 kts | 295° |
| 2026-04-23 05:01 | 43.46663 | -115.93485 | 6527 ft | 181 kts | 295° |
| 2026-04-23 05:01 | 43.47197 | -115.95056 | 6552 ft | 182 kts | 296° |
| 2026-04-23 05:01 | 43.47732 | -115.96615 | 6343 ft | 185 kts | 296° |
| 2026-04-23 05:01 | 43.48280 | -115.98207 | 6067 ft | 181 kts | 296° |
| 2026-04-23 05:02 | 43.48817 | -115.99766 | 6067 ft | 181 kts | 296° |
| 2026-04-23 05:02 | 43.49364 | -116.01355 | 5937 ft | 181 kts | 296° |
| 2026-04-23 05:02 | 43.49899 | -116.02909 | 5742 ft | 181 kts | 295° |
| 2026-04-23 05:02 | 43.50434 | -116.04464 | 5505 ft | 175 kts | 295° |
| 2026-04-23 05:03 | 43.50932 | -116.05912 | 5239 ft | 163 kts | 295° |
| 2026-04-23 05:03 | 43.51413 | -116.07310 | 4988 ft | 161 kts | 296° |
| 2026-04-23 05:03 | 43.51900 | -116.08729 | 4744 ft | 166 kts | 296° |
| 2026-04-23 05:03 | 43.52399 | -116.10183 | 4510 ft | 168 kts | 296° |
| 2026-04-23 05:04 | 43.52896 | -116.11634 | 4281 ft | 167 kts | 296° |
| 2026-04-23 05:04 | 43.53398 | -116.13097 | 4080 ft | 169 kts | 296° |
| 2026-04-23 05:04 | 43.53898 | -116.14556 | 3867 ft | 166 kts | 295° |
| 2026-04-23 05:04 | 43.54391 | -116.15996 | 3620 ft | 166 kts | 295° |
| 2026-04-23 05:05 | 43.54879 | -116.17419 | 3400 ft | 163 kts | 295° |
| 2026-04-23 05:05 | 43.55358 | -116.18817 | 3200 ft | 159 kts | 295° |
| 2026-04-23 05:05 | 43.55810 | -116.20154 | 2974 ft | 148 kts | 296° |
| 2026-04-23 05:05 | 43.56218 | -116.21348 | 2885 ft | 125 kts | 296° |
| 2026-04-23 05:06 | 43.56481 | -116.22108 | 2879 ft | 33 kts | 295° |
| 2026-04-23 05:06 | 43.56540 | -116.22276 | 2880 ft | 21 kts | 296° |
| 2026-04-23 05:06 | 43.56632 | -116.22402 | 2881 ft | 17 kts | 356° |
| 2026-04-23 05:06 | 43.56681 | -116.22344 | 2881 ft | 8 kts | 99° |
| 2026-04-23 05:07 | 43.56668 | -116.22285 | 2881 ft | 5 kts | 111° |
| 2026-04-23 05:07 | 43.56655 | -116.22245 | 2881 ft | 4 kts | 115° |
| 2026-04-23 05:07 | 43.56627 | -116.22167 | 2881 ft | 14 kts | 119° |
| 2026-04-23 05:07 | 43.56661 | -116.22052 | 2882 ft | 17 kts | 11° |
| 2026-04-23 05:08 | 43.56703 | -116.22025 | 2881 ft | 0 kts | 31° |
| 2026-04-23 05:08 | 43.56706 | -116.22022 | 2881 ft | 0 kts | 31° |